Time;durP1;ratioP1;P1;durP2;ratioP2;P2;SDS_P1;SDS_P2;PMS_P1;PMS_P2;Temp;Humidity;BMP_temperature;BMP_pressure;BME280_temperature;BME280_humidity;BME280_pressure;Samples;Min_cycle;Max_cycle;Signal;HPM_P1;HPM_P2
2021/10/02 00:46:09;;;;;;;33.40;24.23;;;;;;;;;;5089689;27;20270;-79
2021/10/02 00:48:36;;;;;;;43.13;26.65;;;;;;;;;;5133504;27;20049;-78
2021/10/02 00:51:03;;;;;;;46.20;26.90;;;;;;;;;;5133521;27;20053;-80
2021/10/02 00:53:29;;;;;;;32.78;21.05;;;;;;;;;;5133049;27;20406;-80
2021/10/02 00:55:55;;;;;;;34.33;22.70;;;;;;;;;;5133005;27;20538;-80
2021/10/02 00:58:21;;;;;;;28.70;21.20;;;;;;;;;;5116320;27;20051;-78
2021/10/02 01:00:48;;;;;;;48.80;26.38;;;;;;;;;;5117743;27;20042;-80
2021/10/02 01:03:26;;;;;;;29.67;20.73;;;;;;;;;;5112673;27;20057;-79
2021/10/02 01:06:02;;;;;;;43.45;24.40;;;;;;;;;;5131179;27;20046;-80
2021/10/02 01:08:48;;;;;;;43.60;24.90;;;;;;;;;;5132716;27;20486;-79
2021/10/02 01:11:23;;;;;;;43.40;24.70;;;;;;;;;;5110303;27;20079;-80
2021/10/02 01:13:56;;;;;;;38.97;23.55;;;;;;;;;;5131499;27;20031;-80
2021/10/02 01:16:31;;;;;;;37.15;23.17;;;;;;;;;;5112523;27;20481;-79
2021/10/02 01:19:03;;;;;;;41.13;24.63;;;;;;;;;;5133089;27;20119;-79
2021/10/02 01:21:48;;;;;;;29.35;22.58;;;;;;;;;;5129038;27;20051;-78
2021/10/02 01:24:33;;;;;;;36.88;24.08;;;;;;;;;;5133251;27;20054;-79
2021/10/02 01:27:14;;;;;;;32.35;23.30;;;;;;;;;;5133292;27;20099;-79
2021/10/02 01:29:42;;;;;;;42.17;24.52;;;;;;;;;;5143147;27;20062;-79
2021/10/02 01:32:15;;;;;;;33.47;23.00;;;;;;;;;;5127965;27;20050;-79
2021/10/02 01:48:34;;;;;;;32.45;24.58;;;;;;;;;;5129794;27;20049;-78
2021/10/02 01:51:02;;;;;;;66.68;32.15;;;;;;;;;;5131193;27;20065;-79
2021/10/02 01:53:33;;;;;;;48.75;30.02;;;;;;;;;;5129375;28;20092;-80
2021/10/02 01:56:00;;;;;;;73.68;34.55;;;;;;;;;;5120962;27;20049;-78
2021/10/02 01:58:27;;;;;;;55.30;32.65;;;;;;;;;;5125566;27;20209;-80
2021/10/02 02:00:53;;;;;;;69.22;36.63;;;;;;;;;;5127992;27;20088;-80
2021/10/02 02:03:21;;;;;;;55.38;33.15;;;;;;;;;;5109518;27;20044;-80
2021/10/02 02:05:48;;;;;;;69.93;36.17;;;;;;;;;;5131010;27;20405;-79
2021/10/02 02:08:19;;;;;;;58.78;33.90;;;;;;;;;;5132588;27;20434;-79
2021/10/02 02:10:45;;;;;;;66.93;36.72;;;;;;;;;;5132558;27;20179;-80
2021/10/02 02:13:13;;;;;;;65.90;36.17;;;;;;;;;;5121010;27;20046;-80
2021/10/02 02:15:40;;;;;;;93.55;41.67;;;;;;;;;;5133841;27;20122;-80
2021/10/02 02:18:08;;;;;;;57.00;33.75;;;;;;;;;;5115201;28;20078;-80
2021/10/02 02:20:38;;;;;;;47.10;31.00;;;;;;;;;;5130163;27;20058;-79
2021/10/02 02:23:05;;;;;;;59.10;33.05;;;;;;;;;;5114123;27;20055;-80
2021/10/02 02:25:32;;;;;;;39.90;28.83;;;;;;;;;;5136480;27;20043;-79
2021/10/02 02:27:58;;;;;;;63.53;34.30;;;;;;;;;;5122505;27;20042;-80
2021/10/02 02:30:24;;;;;;;40.50;28.45;;;;;;;;;;5132611;27;20482;-79
2021/10/02 02:32:51;;;;;;;70.72;34.38;;;;;;;;;;5114966;27;20042;-80
2021/10/02 02:35:21;;;;;;;48.83;30.73;;;;;;;;;;5137509;27;20042;-80
2021/10/02 02:37:47;;;;;;;86.22;38.13;;;;;;;;;;5134948;27;20035;-80
2021/10/02 02:40:13;;;;;;;61.15;32.22;;;;;;;;;;5119307;27;20129;-80
2021/10/02 02:42:40;;;;;;;55.95;31.08;;;;;;;;;;5111948;27;20530;-79
2021/10/02 02:45:07;;;;;;;69.88;34.80;;;;;;;;;;5111890;27;20050;-80
2021/10/02 02:47:35;;;;;;;71.28;34.92;;;;;;;;;;5136544;27;20486;-80
2021/10/02 02:50:10;;;;;;;70.85;34.88;;;;;;;;;;5135487;27;20050;-80
2021/10/02 02:52:39;;;;;;;70.72;35.17;;;;;;;;;;5131554;27;20081;-80
2021/10/02 02:55:10;;;;;;;70.60;35.13;;;;;;;;;;5118581;27;20130;-79
2021/10/02 02:57:42;;;;;;;57.08;32.72;;;;;;;;;;5136261;27;20043;-80
2021/10/02 03:00:13;;;;;;;88.20;37.45;;;;;;;;;;5132602;27;20046;-80
2021/10/02 03:02:48;;;;;;;66.70;34.50;;;;;;;;;;5113782;27;20363;-80
2021/10/02 03:05:16;;;;;;;47.50;29.05;;;;;;;;;;5128611;27;20045;-79
2021/10/02 03:07:46;;;;;;;80.63;35.38;;;;;;;;;;5136090;27;20503;-80
2021/10/02 03:10:13;;;;;;;53.33;31.30;;;;;;;;;;5154534;27;20371;-80
2021/10/02 03:12:41;;;;;;;79.28;36.00;;;;;;;;;;5116477;27;20054;-80
2021/10/02 03:15:10;;;;;;;62.28;31.45;;;;;;;;;;5133812;27;20043;-80
2021/10/02 03:17:37;;;;;;;73.63;34.95;;;;;;;;;;5128152;27;20039;-79
2021/10/02 03:20:06;;;;;;;47.92;31.30;;;;;;;;;;5123544;27;20533;-78
2021/10/02 03:22:34;;;;;;;72.63;36.00;;;;;;;;;;5123939;27;20104;-79
2021/10/02 03:25:01;;;;;;;61.13;33.60;;;;;;;;;;5126852;27;20115;-79
2021/10/02 03:27:28;;;;;;;96.68;39.28;;;;;;;;;;5135497;27;20474;-80
2021/10/02 03:29:55;;;;;;;83.57;37.17;;;;;;;;;;5135420;27;20043;-80
2021/10/02 03:32:22;;;;;;;115.28;42.25;;;;;;;;;;5135688;27;20464;-79
2021/10/02 03:34:49;;;;;;;102.97;40.35;;;;;;;;;;5129902;27;20054;-79
2021/10/02 03:37:15;;;;;;;86.93;37.60;;;;;;;;;;5129286;27;20046;-79
2021/10/02 03:39:41;;;;;;;121.35;41.63;;;;;;;;;;5133278;27;20107;-78
2021/10/02 03:42:09;;;;;;;87.43;37.78;;;;;;;;;;5133981;27;20056;-79
2021/10/02 03:44:36;;;;;;;66.13;34.60;;;;;;;;;;5132396;27;20105;-79
2021/10/02 03:47:02;;;;;;;100.80;39.88;;;;;;;;;;5123942;27;20043;-79
2021/10/02 03:49:28;;;;;;;67.20;33.90;;;;;;;;;;5132667;27;20153;-79
2021/10/02 03:51:54;;;;;;;93.95;38.15;;;;;;;;;;5116562;27;20046;-79
2021/10/02 03:54:20;;;;;;;86.93;36.83;;;;;;;;;;5135459;27;20042;-80
2021/10/02 03:56:46;;;;;;;97.38;36.10;;;;;;;;;;5124169;27;20047;-80
2021/10/02 03:59:13;;;;;;;103.60;39.72;;;;;;;;;;5117241;27;20138;-79
2021/10/02 04:01:39;;;;;;;60.75;34.80;;;;;;;;;;5117562;27;20497;-79
2021/10/02 04:04:05;;;;;;;61.78;33.58;;;;;;;;;;5134275;27;20060;-79
2021/10/02 04:06:31;;;;;;;75.78;36.92;;;;;;;;;;5133394;27;20042;-79
2021/10/02 04:08:57;;;;;;;62.50;34.70;;;;;;;;;;5134144;27;20050;-79
2021/10/02 04:11:23;;;;;;;86.97;37.47;;;;;;;;;;5116069;27;20490;-78
2021/10/02 04:13:49;;;;;;;76.25;35.53;;;;;;;;;;5124779;27;20034;-80
2021/10/02 04:16:15;;;;;;;95.57;39.05;;;;;;;;;;5117589;27;20042;-79
2021/10/02 04:18:41;;;;;;;90.90;37.55;;;;;;;;;;5126367;27;20056;-79
2021/10/02 04:21:07;;;;;;;86.13;37.72;;;;;;;;;;5115457;27;20047;-79
2021/10/02 04:23:33;;;;;;;102.93;39.35;;;;;;;;;;5098480;27;20506;-79
2021/10/02 04:25:59;;;;;;;131.85;42.35;;;;;;;;;;5125320;27;20456;-79
2021/10/02 04:28:25;;;;;;;117.70;42.25;;;;;;;;;;5125643;27;20043;-79
2021/10/02 04:30:51;;;;;;;69.95;34.63;;;;;;;;;;5130317;27;20043;-78
2021/10/02 04:33:18;;;;;;;138.13;45.47;;;;;;;;;;5126606;27;20046;-79
2021/10/02 04:35:44;;;;;;;101.00;40.78;;;;;;;;;;5113067;27;20486;-78
2021/10/02 04:38:10;;;;;;;120.55;44.08;;;;;;;;;;5120850;27;20100;-79
2021/10/02 04:40:36;;;;;;;64.82;35.65;;;;;;;;;;5121295;27;20044;-78
2021/10/02 04:43:02;;;;;;;73.90;36.58;;;;;;;;;;5113156;27;20058;-79
2021/10/02 04:45:28;;;;;;;57.97;34.67;;;;;;;;;;5095677;27;20081;-79
2021/10/02 04:47:55;;;;;;;110.93;41.08;;;;;;;;;;5113856;27;20058;-79
2021/10/02 04:50:21;;;;;;;100.40;39.90;;;;;;;;;;5113994;27;20039;-79
2021/10/02 04:52:47;;;;;;;84.70;38.83;;;;;;;;;;5130836;27;20126;-79
2021/10/02 04:55:13;;;;;;;80.43;38.50;;;;;;;;;;5107501;27;20416;-79
2021/10/02 04:57:39;;;;;;;67.90;36.25;;;;;;;;;;5119729;27;20043;-81
2021/10/02 05:00:05;;;;;;;64.93;34.03;;;;;;;;;;5123760;27;20048;-79
2021/10/02 05:02:31;;;;;;;116.47;42.38;;;;;;;;;;5127259;27;20093;-79
2021/10/02 05:04:57;;;;;;;119.97;42.20;;;;;;;;;;5108799;27;20035;-79
2021/10/02 05:07:23;;;;;;;127.60;44.13;;;;;;;;;;5122753;27;20100;-79
2021/10/02 05:09:49;;;;;;;90.90;39.85;;;;;;;;;;5120925;27;20035;-80
2021/10/02 05:12:16;;;;;;;101.75;41.38;;;;;;;;;;5130001;27;20043;-80
2021/10/02 05:14:42;;;;;;;154.50;48.70;;;;;;;;;;5120950;27;20051;-80
2021/10/02 05:17:11;;;;;;;127.75;47.38;;;;;;;;;;5130679;28;20367;-79
2021/10/02 05:19:38;;;;;;;81.18;39.42;;;;;;;;;;5127109;28;20125;-79
2021/10/02 05:22:05;;;;;;;89.72;40.70;;;;;;;;;;5122655;28;20498;-79
2021/10/02 05:24:31;;;;;;;143.23;48.70;;;;;;;;;;5130526;28;20126;-79
2021/10/02 05:26:57;;;;;;;114.47;44.08;;;;;;;;;;5122394;28;20160;-78
2021/10/02 05:29:23;;;;;;;117.63;47.33;;;;;;;;;;5130424;28;20557;-79
2021/10/02 05:31:49;;;;;;;111.93;43.95;;;;;;;;;;5127614;28;20522;-80
2021/10/02 05:34:15;;;;;;;106.97;43.65;;;;;;;;;;5113736;28;20390;-79
2021/10/02 05:36:41;;;;;;;108.88;44.20;;;;;;;;;;5124798;28;20416;-80
2021/10/02 05:39:07;;;;;;;109.78;42.80;;;;;;;;;;5123354;28;21062;-80
2021/10/02 05:41:34;;;;;;;99.18;41.25;;;;;;;;;;5127545;28;20046;-78
2021/10/02 05:44:00;;;;;;;107.18;43.63;;;;;;;;;;5112614;28;20074;-78
2021/10/02 05:46:26;;;;;;;75.80;37.50;;;;;;;;;;5097006;28;20044;-78
2021/10/02 05:48:52;;;;;;;137.13;46.03;;;;;;;;;;5107782;28;20047;-79
2021/10/02 05:51:18;;;;;;;70.63;38.28;;;;;;;;;;5096138;28;20043;-79
2021/10/02 05:53:44;;;;;;;106.90;43.22;;;;;;;;;;5121909;27;20401;-78
2021/10/02 05:56:10;;;;;;;148.77;48.97;;;;;;;;;;5109483;27;20367;-78
2021/10/02 05:58:36;;;;;;;87.88;41.85;;;;;;;;;;5104272;27;20043;-82
2021/10/02 06:01:02;;;;;;;93.90;40.42;;;;;;;;;;5093763;27;20039;-80
2021/10/02 06:03:28;;;;;;;78.72;39.05;;;;;;;;;;5124158;27;20036;-79
2021/10/02 06:05:59;;;;;;;77.03;39.17;;;;;;;;;;5108665;27;20047;-79
2021/10/02 06:08:26;;;;;;;85.10;38.42;;;;;;;;;;5130815;27;20451;-78
2021/10/02 06:10:52;;;;;;;90.80;38.53;;;;;;;;;;5126449;27;20050;-81
2021/10/02 06:13:18;;;;;;;98.22;40.55;;;;;;;;;;5131509;27;20130;-80
2021/10/02 06:15:44;;;;;;;62.17;36.45;;;;;;;;;;5123876;27;20047;-80
2021/10/02 06:18:11;;;;;;;80.43;38.13;;;;;;;;;;5122772;27;20035;-82
2021/10/02 06:20:37;;;;;;;82.40;37.70;;;;;;;;;;5126783;27;20544;-84
2021/10/02 06:23:04;;;;;;;53.33;32.42;;;;;;;;;;5114131;27;20069;-78
2021/10/02 06:25:33;;;;;;;102.75;40.55;;;;;;;;;;5088666;27;20078;-87
2021/10/02 06:28:00;;;;;;;69.32;35.75;;;;;;;;;;5117085;27;20103;-86
2021/10/02 06:30:26;;;;;;;82.90;37.53;;;;;;;;;;5107077;27;20031;-79
2021/10/02 06:32:52;;;;;;;67.15;35.40;;;;;;;;;;5129052;27;20039;-78
2021/10/02 06:35:18;;;;;;;59.70;33.25;;;;;;;;;;5129698;27;20039;-80
2021/10/02 06:37:45;;;;;;;100.20;40.17;;;;;;;;;;5113721;27;20074;-80
2021/10/02 06:40:11;;;;;;;74.45;37.47;;;;;;;;;;5110353;27;20050;-78
2021/10/02 06:42:37;;;;;;;93.05;40.15;;;;;;;;;;5109023;27;20047;-82
2021/10/02 06:45:04;;;;;;;89.55;39.17;;;;;;;;;;5119379;27;20378;-77
2021/10/02 06:47:31;;;;;;;77.95;38.75;;;;;;;;;;5132661;27;20123;-80
2021/10/02 06:49:57;;;;;;;92.53;39.63;;;;;;;;;;5099305;27;20050;-80
2021/10/02 06:52:24;;;;;;;85.35;39.03;;;;;;;;;;5114785;27;20039;-80
2021/10/02 06:54:50;;;;;;;136.48;47.30;;;;;;;;;;5130698;27;20054;-81
2021/10/02 06:57:16;;;;;;;185.23;50.40;;;;;;;;;;5110310;28;20046;-81
2021/10/02 06:59:42;;;;;;;165.70;50.10;;;;;;;;;;5113834;27;20134;-80
2021/10/02 07:02:08;;;;;;;110.32;43.65;;;;;;;;;;5110184;27;20054;-80
2021/10/02 07:04:34;;;;;;;142.77;47.08;;;;;;;;;;5114285;27;20043;-80
2021/10/02 07:07:00;;;;;;;145.43;48.25;;;;;;;;;;5130422;27;20047;-80
2021/10/02 07:09:26;;;;;;;110.82;44.90;;;;;;;;;;5114798;27;20035;-81
2021/10/02 07:11:52;;;;;;;86.03;40.05;;;;;;;;;;5131360;27;20054;-80
2021/10/02 07:14:18;;;;;;;103.18;41.80;;;;;;;;;;5095541;27;20047;-80
2021/10/02 07:16:44;;;;;;;112.07;43.60;;;;;;;;;;5132300;27;20130;-80
2021/10/02 07:19:11;;;;;;;103.80;41.65;;;;;;;;;;5133113;27;20099;-79
2021/10/02 07:21:37;;;;;;;112.65;43.35;;;;;;;;;;5130411;27;20055;-80
2021/10/02 07:24:03;;;;;;;119.72;44.65;;;;;;;;;;5108438;28;20047;-78
2021/10/02 07:26:29;;;;;;;90.93;41.65;;;;;;;;;;5124305;27;20036;-80
2021/10/02 07:28:55;;;;;;;111.57;45.22;;;;;;;;;;5095315;27;20043;-81
2021/10/02 07:31:21;;;;;;;105.28;42.78;;;;;;;;;;5131015;27;20066;-82
2021/10/02 07:33:48;;;;;;;113.63;45.00;;;;;;;;;;5126581;27;20126;-83
2021/10/02 07:36:15;;;;;;;78.53;38.42;;;;;;;;;;5126926;27;20039;-84
2021/10/02 07:38:41;;;;;;;76.43;37.42;;;;;;;;;;5127204;27;20043;-81
2021/10/02 07:41:07;;;;;;;69.32;35.92;;;;;;;;;;5128997;27;20035;-80
2021/10/02 07:43:34;;;;;;;78.78;37.15;;;;;;;;;;5106533;27;20080;-81
2021/10/02 07:46:00;;;;;;;69.05;36.15;;;;;;;;;;5130218;27;20375;-81
2021/10/02 07:48:27;;;;;;;85.55;40.35;;;;;;;;;;5110073;27;20044;-80
2021/10/02 07:50:54;;;;;;;105.80;43.30;;;;;;;;;;5129164;27;20039;-82
2021/10/02 07:53:21;;;;;;;93.20;42.10;;;;;;;;;;5120475;27;20387;-79
2021/10/02 07:55:48;;;;;;;88.40;41.33;;;;;;;;;;5120237;27;20372;-79
2021/10/02 07:58:14;;;;;;;82.43;42.22;;;;;;;;;;5130817;27;20043;-79
2021/10/02 08:00:40;;;;;;;86.40;42.70;;;;;;;;;;5113261;27;20452;-79
2021/10/02 08:03:07;;;;;;;89.22;43.03;;;;;;;;;;5113886;27;20372;-79
2021/10/02 08:05:33;;;;;;;81.80;42.55;;;;;;;;;;5113122;27;20122;-80
2021/10/02 08:08:01;;;;;;;86.53;43.95;;;;;;;;;;5129513;27;20039;-78
2021/10/02 08:10:29;;;;;;;84.30;46.30;;;;;;;;;;5130485;27;20051;-79
2021/10/02 08:12:55;;;;;;;68.47;42.53;;;;;;;;;;5120228;27;20082;-79
2021/10/02 08:15:22;;;;;;;62.88;42.63;;;;;;;;;;5110168;27;20051;-80
2021/10/02 08:17:49;;;;;;;63.60;40.38;;;;;;;;;;5121439;27;20051;-82
2021/10/02 08:20:16;;;;;;;48.67;36.85;;;;;;;;;;5113772;27;20055;-85
2021/10/02 08:22:44;;;;;;;52.35;40.63;;;;;;;;;;5110127;27;20043;-81
2021/10/02 08:25:11;;;;;;;48.45;36.67;;;;;;;;;;5123431;27;20038;-80
2021/10/02 08:27:37;;;;;;;43.17;35.65;;;;;;;;;;5101994;27;20050;-80
2021/10/02 08:30:07;;;;;;;39.83;35.03;;;;;;;;;;5127421;27;20039;-79
2021/10/02 08:32:33;;;;;;;35.17;31.33;;;;;;;;;;5122968;27;20259;-76
2021/10/02 08:34:59;;;;;;;36.20;31.85;;;;;;;;;;5127746;27;20390;-80
2021/10/02 08:37:26;;;;;;;32.28;28.35;;;;;;;;;;5133794;27;20030;-80
2021/10/02 08:39:52;;;;;;;34.15;28.38;;;;;;;;;;5123358;27;20478;-80
2021/10/02 08:42:18;;;;;;;32.08;28.65;;;;;;;;;;5133531;27;20116;-79
2021/10/02 08:44:44;;;;;;;32.33;26.50;;;;;;;;;;5142362;27;20047;-79
2021/10/02 08:47:10;;;;;;;27.75;24.45;;;;;;;;;;5130138;27;20042;-79
2021/10/02 08:49:45;;;;;;;25.15;22.45;;;;;;;;;;5127217;27;20039;-79
2021/10/02 08:52:11;;;;;;;23.67;19.65;;;;;;;;;;5132391;27;20053;-80
2021/10/02 08:54:38;;;;;;;24.20;21.75;;;;;;;;;;5123319;27;20047;-78
2021/10/02 08:57:08;;;;;;;19.65;16.27;;;;;;;;;;5116569;27;20050;-78
2021/10/02 08:59:36;;;;;;;17.27;13.50;;;;;;;;;;5113695;27;20473;-80
2021/10/02 09:02:02;;;;;;;15.40;13.18;;;;;;;;;;5101208;27;20126;-82
2021/10/02 09:04:28;;;;;;;15.52;13.18;;;;;;;;;;5100583;27;20477;-81
2021/10/02 09:06:54;;;;;;;14.73;12.88;;;;;;;;;;5093361;27;20392;-83
2021/10/02 09:09:21;;;;;;;17.75;12.23;;;;;;;;;;5087698;27;20050;-81
2021/10/02 09:11:47;;;;;;;18.00;12.63;;;;;;;;;;5123702;27;20544;-85
2021/10/02 09:14:13;;;;;;;13.57;11.95;;;;;;;;;;5101613;27;20043;-84
2021/10/02 09:16:42;;;;;;;14.10;11.63;;;;;;;;;;5090015;27;20035;-85
2021/10/02 09:19:09;;;;;;;16.60;12.88;;;;;;;;;;5119958;27;20043;-79
2021/10/02 09:21:42;;;;;;;14.73;11.45;;;;;;;;;;5116534;28;20055;-78
2021/10/02 09:24:19;;;;;;;18.60;12.88;;;;;;;;;;5121804;28;20048;-78
2021/10/02 09:26:45;;;;;;;15.75;12.45;;;;;;;;;;5109355;28;20494;-77
2021/10/02 09:29:11;;;;;;;18.50;12.80;;;;;;;;;;5113729;27;20071;-77
2021/10/02 09:31:38;;;;;;;19.83;13.48;;;;;;;;;;5101550;27;20043;-78
2021/10/02 09:34:04;;;;;;;17.63;12.57;;;;;;;;;;5106492;27;20044;-79
2021/10/02 09:36:30;;;;;;;17.77;12.65;;;;;;;;;;5099134;28;20044;-79
2021/10/02 09:38:56;;;;;;;16.73;12.05;;;;;;;;;;5121155;27;20048;-79
2021/10/02 09:41:22;;;;;;;17.23;11.50;;;;;;;;;;5093948;28;20043;-77
2021/10/02 09:43:54;;;;;;;15.70;12.60;;;;;;;;;;5128015;27;20130;-81
2021/10/02 09:46:31;;;;;;;17.33;13.20;;;;;;;;;;5125910;27;20367;-78
2021/10/02 09:48:57;;;;;;;17.70;13.85;;;;;;;;;;5120715;27;20051;-77
2021/10/02 09:51:38;;;;;;;19.45;12.55;;;;;;;;;;5119275;27;20057;-77
2021/10/02 09:54:04;;;;;;;16.73;12.85;;;;;;;;;;5123805;27;20039;-75
2021/10/02 09:56:30;;;;;;;24.25;13.80;;;;;;;;;;5113589;27;20584;-78
2021/10/02 09:58:58;;;;;;;18.40;13.68;;;;;;;;;;5113567;27;20146;-78
2021/10/02 10:01:25;;;;;;;19.15;13.82;;;;;;;;;;5118181;27;20462;-80
2021/10/02 10:03:51;;;;;;;17.75;13.40;;;;;;;;;;5106326;28;20059;-81
2021/10/02 10:06:22;;;;;;;18.48;14.30;;;;;;;;;;5108339;27;20043;-83
2021/10/02 10:09:26;;;;;;;18.98;14.13;;;;;;;;;;5112145;27;20047;-80
2021/10/02 10:11:53;;;;;;;;;;;;;;;;;;5023750;28;20076;-82
2021/10/02 10:14:19;;;;;;;19.77;15.57;;;;;;;;;;5039955;28;19921;-82
2021/10/02 10:16:45;;;;;;;18.83;15.15;;;;;;;;;;5058917;27;20082;-83
2021/10/02 10:19:18;;;;;;;23.05;16.50;;;;;;;;;;5123025;27;20089;-81
2021/10/02 10:21:45;;;;;;;21.90;15.77;;;;;;;;;;5110242;27;20090;-83
2021/10/02 10:24:18;;;;;;;17.85;14.45;;;;;;;;;;5115875;27;20088;-80
2021/10/02 10:26:45;;;;;;;20.27;15.90;;;;;;;;;;5118454;27;20650;-82
2021/10/02 10:29:11;;;;;;;17.40;13.93;;;;;;;;;;5126968;27;20070;-82
2021/10/02 10:31:38;;;;;;;19.00;12.27;;;;;;;;;;5118036;27;20086;-82
2021/10/02 10:34:05;;;;;;;17.63;11.88;;;;;;;;;;5108752;27;20047;-82
2021/10/02 10:36:32;;;;;;;14.23;9.82;;;;;;;;;;5115313;27;20100;-82
2021/10/02 10:38:58;;;;;;;16.60;9.90;;;;;;;;;;5106265;27;20084;-80
2021/10/02 10:41:27;;;;;;;11.82;8.60;;;;;;;;;;5104012;27;20547;-80
2021/10/02 10:43:54;;;;;;;17.23;7.97;;;;;;;;;;5123421;27;20047;-81
2021/10/02 10:46:23;;;;;;;11.18;7.15;;;;;;;;;;5124921;27;20043;-78
2021/10/02 10:48:49;;;;;;;9.88;8.20;;;;;;;;;;5106544;27;20478;-80
2021/10/02 10:51:17;;;;;;;11.25;7.13;;;;;;;;;;5131610;27;20079;-79
2021/10/02 10:53:53;;;;;;;10.85;6.70;;;;;;;;;;5111037;27;20065;-80
2021/10/02 10:56:36;;;;;;;12.23;7.25;;;;;;;;;;5121387;27;20039;-80
2021/10/02 10:59:02;;;;;;;15.25;5.93;;;;;;;;;;5118096;27;20050;-79
2021/10/02 11:01:33;;;;;;;11.52;5.60;;;;;;;;;;5130114;27;20122;-78
2021/10/02 11:03:59;;;;;;;10.48;6.28;;;;;;;;;;5113174;27;20047;-78
2021/10/02 11:06:45;;;;;;;12.20;6.63;;;;;;;;;;5099279;28;20047;-78
2021/10/02 11:09:11;;;;;;;12.02;6.82;;;;;;;;;;5119420;27;20043;-80
2021/10/02 11:11:46;;;;;;;13.40;6.47;;;;;;;;;;5113902;27;20039;-80
2021/10/02 11:14:13;;;;;;;8.57;5.40;;;;;;;;;;5115403;27;20057;-81
2021/10/02 11:16:44;;;;;;;11.40;5.30;;;;;;;;;;5104068;27;20043;-80
2021/10/02 11:19:29;;;;;;;11.98;5.63;;;;;;;;;;5116971;27;20046;-80
2021/10/02 11:22:00;;;;;;;13.07;6.25;;;;;;;;;;5131796;27;20051;-83
2021/10/02 11:24:34;;;;;;;11.70;6.68;;;;;;;;;;5122639;27;20130;-82
2021/10/02 11:27:00;;;;;;;12.40;6.10;;;;;;;;;;5124672;27;20040;-85
2021/10/02 11:29:28;;;;;;;11.43;6.10;;;;;;;;;;5121769;27;20074;-80
2021/10/02 11:32:21;;;;;;;9.15;5.88;;;;;;;;;;5110404;27;20066;-82
2021/10/02 11:35:07;;;;;;;13.25;5.38;;;;;;;;;;5113082;27;20139;-82
2021/10/02 11:37:50;;;;;;;9.88;5.32;;;;;;;;;;5118073;27;20532;-80
2021/10/02 11:40:35;;;;;;;7.90;5.10;;;;;;;;;;5106901;27;20050;-81
2021/10/02 11:43:13;;;;;;;11.27;5.07;;;;;;;;;;5105826;27;20082;-78
2021/10/02 11:45:58;;;;;;;10.38;5.32;;;;;;;;;;5101581;27;20053;-84
2021/10/02 11:48:30;;;;;;;10.93;5.95;;;;;;;;;;5118174;27;20050;-79
2021/10/02 11:51:13;;;;;;;12.82;5.88;;;;;;;;;;5129957;27;20397;-80
2021/10/02 11:53:44;;;;;;;12.48;5.72;;;;;;;;;;5111758;27;20038;-81
2021/10/02 11:56:18;;;;;;;15.05;6.10;;;;;;;;;;5108241;27;20550;-80
2021/10/02 11:58:44;;;;;;;;;;;;;;;;;;5115708;27;20054;-81
2021/10/02 12:01:18;;;;;;;12.15;6.00;;;;;;;;;;5118361;27;20026;-81
2021/10/02 12:03:44;;;;;;;11.65;5.85;;;;;;;;;;5117977;27;20098;-78
2021/10/02 12:06:10;;;;;;;13.02;4.88;;;;;;;;;;5120343;27;20039;-80
2021/10/02 12:08:38;;;;;;;9.30;4.13;;;;;;;;;;5116776;27;20051;-78
2021/10/02 12:11:07;;;;;;;10.70;3.47;;;;;;;;;;5106945;27;20103;-79
2021/10/02 12:13:49;;;;;;;9.88;3.58;;;;;;;;;;5107136;27;20046;-80
2021/10/02 12:16:20;;;;;;;7.95;3.20;;;;;;;;;;5118621;27;20046;-78
2021/10/02 12:18:52;;;;;;;6.30;3.45;;;;;;;;;;5103773;27;20075;-78
2021/10/02 12:21:21;;;;;;;7.78;3.13;;;;;;;;;;5121078;27;20051;-82
2021/10/02 12:23:51;;;;;;;13.18;3.08;;;;;;;;;;5113359;27;20108;-86
2021/10/02 12:26:17;;;;;;;10.27;2.83;;;;;;;;;;5116887;27;20043;-80
2021/10/02 12:28:44;;;;;;;6.95;2.50;;;;;;;;;;5117251;27;20043;-80
2021/10/02 12:31:10;;;;;;;6.95;2.60;;;;;;;;;;5116402;27;20046;-79
2021/10/02 12:33:36;;;;;;;9.68;3.10;;;;;;;;;;5100639;27;20043;-77
2021/10/02 12:36:02;;;;;;;5.22;2.88;;;;;;;;;;5098897;27;20537;-81
2021/10/02 12:38:44;;;;;;;8.00;2.95;;;;;;;;;;5112267;27;20090;-77
2021/10/02 12:41:11;;;;;;;8.18;3.35;;;;;;;;;;5109280;27;20134;-83
2021/10/02 12:43:38;;;;;;;8.38;2.92;;;;;;;;;;5122746;27;20115;-76
2021/10/02 12:46:18;;;;;;;12.05;3.78;;;;;;;;;;5112420;27;20042;-85
2021/10/02 12:48:44;;;;;;;7.40;2.92;;;;;;;;;;5102035;27;20083;-83
2021/10/02 12:51:10;;;;;;;8.68;2.70;;;;;;;;;;5096735;27;20043;-83
2021/10/02 12:53:37;;;;;;;12.25;3.13;;;;;;;;;;5123360;27;20048;-82
2021/10/02 12:56:19;;;;;;;9.20;3.60;;;;;;;;;;5132468;27;20080;-84
2021/10/02 12:58:46;;;;;;;9.90;3.53;;;;;;;;;;5113196;27;20542;-80
2021/10/02 13:01:13;;;;;;;9.63;3.30;;;;;;;;;;5127405;27;20047;-82
2021/10/02 13:03:40;;;;;;;8.98;3.70;;;;;;;;;;5122474;27;20509;-79
2021/10/02 13:06:06;;;;;;;10.40;3.25;;;;;;;;;;5116343;27;20512;-85
2021/10/02 13:08:32;;;;;;;8.52;3.67;;;;;;;;;;5121985;27;20043;-84
2021/10/02 13:10:59;;;;;;;5.05;3.10;;;;;;;;;;5127388;27;20456;-81
2021/10/02 13:13:25;;;;;;;6.13;3.35;;;;;;;;;;5128336;27;20042;-83
2021/10/02 13:15:53;;;;;;;9.02;3.38;;;;;;;;;;5131348;27;20388;-82
2021/10/02 13:18:23;;;;;;;7.90;3.20;;;;;;;;;;5131112;27;20038;-81
2021/10/02 13:20:51;;;;;;;11.13;3.78;;;;;;;;;;5117819;28;20135;-83
2021/10/02 13:23:22;;;;;;;12.27;4.00;;;;;;;;;;5109871;27;20051;-82
2021/10/02 13:25:56;;;;;;;8.57;3.92;;;;;;;;;;5129328;27;20039;-81
2021/10/02 13:28:30;;;;;;;10.50;4.05;;;;;;;;;;5127175;27;20050;-82
2021/10/02 13:30:57;;;;;;;8.07;3.60;;;;;;;;;;5114977;27;20039;-81
2021/10/02 13:33:24;;;;;;;15.07;4.00;;;;;;;;;;5130593;27;20517;-80
2021/10/02 13:35:55;;;;;;;9.18;4.18;;;;;;;;;;5107419;27;20050;-83
2021/10/02 13:38:38;;;;;;;11.45;3.47;;;;;;;;;;5125587;27;20047;-81
2021/10/02 13:41:08;;;;;;;10.10;3.95;;;;;;;;;;5120980;27;20081;-80
2021/10/02 13:43:34;;;;;;;8.73;3.70;;;;;;;;;;5123988;27;20053;-79
2021/10/02 13:46:00;;;;;;;9.02;3.90;;;;;;;;;;5118227;27;20130;-72
2021/10/02 13:48:28;;;;;;;10.40;4.00;;;;;;;;;;5107405;27;20129;-71
2021/10/02 13:50:55;;;;;;;11.80;3.65;;;;;;;;;;5111220;27;20070;-74
2021/10/02 13:53:21;;;;;;;13.05;4.15;;;;;;;;;;5110865;27;20427;-74
2021/10/02 13:55:47;;;;;;;13.60;3.75;;;;;;;;;;5108608;27;20054;-72
2021/10/02 13:58:14;;;;;;;10.70;3.90;;;;;;;;;;5117546;27;20520;-71
2021/10/02 14:00:40;;;;;;;11.77;4.15;;;;;;;;;;5121127;27;20761;-76
2021/10/02 14:03:06;;;;;;;9.27;3.72;;;;;;;;;;5120829;27;20035;-71
2021/10/02 14:05:32;;;;;;;10.45;4.78;;;;;;;;;;5129428;27;20055;-73
2021/10/02 14:07:59;;;;;;;7.28;3.20;;;;;;;;;;5114585;27;20703;-72
2021/10/02 14:10:28;;;;;;;7.95;3.92;;;;;;;;;;5105723;27;20054;-71
2021/10/02 14:12:54;;;;;;;8.90;3.83;;;;;;;;;;5122117;27;20362;-72
2021/10/02 14:15:20;;;;;;;5.72;3.38;;;;;;;;;;5121432;27;20043;-72
2021/10/02 14:17:46;;;;;;;8.63;3.42;;;;;;;;;;5117067;27;21561;-73
2021/10/02 14:20:13;;;;;;;7.40;3.65;;;;;;;;;;5146175;27;20054;-71
2021/10/02 14:22:40;;;;;;;12.00;3.92;;;;;;;;;;5140474;27;20055;-75
2021/10/02 14:25:08;;;;;;;8.80;3.58;;;;;;;;;;5099376;27;20251;-72
2021/10/02 14:27:34;;;;;;;7.95;3.75;;;;;;;;;;5133590;27;20186;-80
2021/10/02 14:30:00;;;;;;;9.43;3.38;;;;;;;;;;5106010;27;20043;-77
2021/10/02 14:32:26;;;;;;;8.85;3.60;;;;;;;;;;5122653;27;20122;-77
2021/10/02 14:34:52;;;;;;;8.60;3.15;;;;;;;;;;5115823;27;20058;-77
2021/10/02 14:37:18;;;;;;;6.22;3.20;;;;;;;;;;5124051;27;20046;-78
2021/10/02 14:39:46;;;;;;;6.82;3.30;;;;;;;;;;5117506;27;20069;-78
2021/10/02 14:42:13;;;;;;;8.57;2.97;;;;;;;;;;5118675;27;20039;-78
2021/10/02 14:44:40;;;;;;;10.25;3.45;;;;;;;;;;5118264;27;20046;-78
2021/10/02 14:47:06;;;;;;;7.68;3.22;;;;;;;;;;5121815;27;20041;-76
2021/10/02 14:49:32;;;;;;;7.75;2.95;;;;;;;;;;5122398;27;20508;-75
2021/10/02 14:51:59;;;;;;;11.38;3.92;;;;;;;;;;5118994;27;20049;-75
2021/10/02 14:54:28;;;;;;;6.00;2.60;;;;;;;;;;5123597;27;20043;-75
2021/10/02 14:56:56;;;;;;;6.82;2.70;;;;;;;;;;5127545;27;20106;-76
2021/10/02 14:59:22;;;;;;;8.02;2.65;;;;;;;;;;5129787;27;20038;-75
2021/10/02 15:01:48;;;;;;;5.35;2.35;;;;;;;;;;5100507;27;20494;-75
2021/10/02 15:04:15;;;;;;;9.48;2.70;;;;;;;;;;5144917;27;20356;-75
2021/10/02 15:06:42;;;;;;;6.35;2.33;;;;;;;;;;5121005;27;20066;-74
2021/10/02 15:09:08;;;;;;;5.43;2.13;;;;;;;;;;5144266;27;20415;-75
2021/10/02 15:11:34;;;;;;;5.65;2.30;;;;;;;;;;5119620;27;20129;-78
2021/10/02 15:14:00;;;;;;;5.72;2.15;;;;;;;;;;5119902;27;20047;-77
2021/10/02 15:16:26;;;;;;;3.53;2.17;;;;;;;;;;5134491;27;20053;-76
2021/10/02 15:18:52;;;;;;;5.45;1.95;;;;;;;;;;5126049;27;20046;-75
2021/10/02 15:21:19;;;;;;;4.85;2.10;;;;;;;;;;5098106;27;20039;-76
2021/10/02 15:23:45;;;;;;;5.93;1.90;;;;;;;;;;5138146;27;20051;-75
2021/10/02 15:26:14;;;;;;;5.03;2.13;;;;;;;;;;5116663;27;20047;-75
2021/10/02 15:28:42;;;;;;;5.60;2.13;;;;;;;;;;5139178;27;20047;-76